Mc Alester Regional Airport Mc Alester US
ICAO: KMLC
IATA: MLC
Category: Medium
Scheduled Services: No

Elevation: 770 ft
TransAlt. 18000 ft.

Airport Communications:
ASOS:135.125
FORT WORTH CNTR:132.2
RDO:122.65
CTAF/UNICOM:122.95

KMLC Zoom In..

Runways:

(A) RW 02 length 5602 ft width 100 ft
LOC 108.30 / hdg 14

(B) RW 20 length 5602 ft width 100 ft
LOC 108.30 / hdg 194

Location; KMLC
Day. 26 / Time. 03.53 Zulu
* Altimeter: 29.88
* Temperature: 20° c. 68°f.
* Wind from: 000° Speed 00 kn.
Dewpoint: 19° c.
Visibility: 10 Statute Miles.
Clouds: Few 12000 ft.

KMLC 260353Z AUTO 00000KT 10SM FEW120 20/19 A2988 RMK AO2 SLP111 T02000194


Wind - Calm.

 
 
jpsmedia.com for Web Design SOUNDCLOUD worldairports.se 2018   terms of use